sensor_id;sensor_type;location;lat;lon;timestamp;temperature;humidity
7044;DHT22;57890;52.36301240;9.76001620;2022-08-05T00:02:04;24.70;90.00
7044;DHT22;57890;52.36301240;9.76001620;2022-08-05T00:04:31;24.70;90.10
7044;DHT22;57890;52.36301240;9.76001620;2022-08-05T00:06:58;24.60;90.00
7044;DHT22;57890;52.36301240;9.76001620;2022-08-05T00:09:25;24.60;90.10
7044;DHT22;57890;52.36301240;9.76001620;2022-08-05T00:11:52;24.60;90.20
7044;DHT22;57890;52.36301240;9.76001620;2022-08-05T00:14:18;24.50;90.20
7044;DHT22;57890;52.36301240;9.76001620;2022-08-05T00:16:47;24.50;90.20
7044;DHT22;57890;52.36301240;9.76001620;2022-08-05T00:19:13;24.40;90.20
7044;DHT22;57890;52.36301240;9.76001620;2022-08-05T00:21:40;24.40;90.30
7044;DHT22;57890;52.36301240;9.76001620;2022-08-05T00:24:07;24.30;90.30
7044;DHT22;57890;52.36301240;9.76001620;2022-08-05T00:26:34;24.30;90.40
7044;DHT22;57890;52.36301240;9.76001620;2022-08-05T00:29:01;24.30;90.50
7044;DHT22;57890;52.36301240;9.76001620;2022-08-05T00:31:28;24.30;90.50
7044;DHT22;57890;52.36301240;9.76001620;2022-08-05T00:33:56;24.30;90.60
7044;DHT22;57890;52.36301240;9.76001620;2022-08-05T00:36:23;24.30;90.70
7044;DHT22;57890;52.36301240;9.76001620;2022-08-05T00:38:50;24.20;90.70
7044;DHT22;57890;52.36301240;9.76001620;2022-08-05T00:41:26;24.20;90.70
7044;DHT22;57890;52.36301240;9.76001620;2022-08-05T00:43:54;24.20;90.80
7044;DHT22;57890;52.36301240;9.76001620;2022-08-05T00:46:20;24.20;90.80
7044;DHT22;57890;52.36301240;9.76001620;2022-08-05T00:48:47;24.10;90.90
7044;DHT22;57890;52.36301240;9.76001620;2022-08-05T00:51:16;24.10;90.90
7044;DHT22;57890;52.36301240;9.76001620;2022-08-05T00:53:43;24.10;91.10
7044;DHT22;57890;52.36301240;9.76001620;2022-08-05T00:56:11;24.00;91.10
7044;DHT22;57890;52.36301240;9.76001620;2022-08-05T00:58:38;24.10;91.20
7044;DHT22;57890;52.36301240;9.76001620;2022-08-05T01:01:05;24.00;91.20
7044;DHT22;57890;52.36301240;9.76001620;2022-08-05T01:03:32;24.00;91.20
7044;DHT22;57890;52.36301240;9.76001620;2022-08-05T01:05:58;24.00;91.20
7044;DHT22;57890;52.36301240;9.76001620;2022-08-05T01:08:27;23.90;91.20
7044;DHT22;57890;52.36301240;9.76001620;2022-08-05T01:10:57;23.90;91.30
7044;DHT22;57890;52.36301240;9.76001620;2022-08-05T01:13:52;23.90;91.40
7044;DHT22;57890;52.36301240;9.76001620;2022-08-05T01:16:25;23.80;91.50
7044;DHT22;57890;52.36301240;9.76001620;2022-08-05T01:18:59;23.80;91.40
7044;DHT22;57890;52.36301240;9.76001620;2022-08-05T01:21:50;23.80;91.50
7044;DHT22;57890;52.36301240;9.76001620;2022-08-05T01:24:46;23.70;91.50
7044;DHT22;57890;52.36301240;9.76001620;2022-08-05T01:27:24;23.70;91.50
7044;DHT22;57890;52.36301240;9.76001620;2022-08-05T01:29:59;23.70;91.40
7044;DHT22;57890;52.36301240;9.76001620;2022-08-05T01:32:30;23.70;91.50
7044;DHT22;57890;52.36301240;9.76001620;2022-08-05T01:34:59;23.70;91.50
7044;DHT22;57890;52.36301240;9.76001620;2022-08-05T01:37:34;23.60;91.40
7044;DHT22;57890;52.36301240;9.76001620;2022-08-05T01:40:02;23.60;91.50
7044;DHT22;57890;52.36301240;9.76001620;2022-08-05T01:42:31;23.60;91.40
7044;DHT22;57890;52.36301240;9.76001620;2022-08-05T01:45:02;23.50;91.40
7044;DHT22;57890;52.36301240;9.76001620;2022-08-05T01:47:30;23.50;91.40
7044;DHT22;57890;52.36301240;9.76001620;2022-08-05T01:49:58;23.50;91.50
7044;DHT22;57890;52.36301240;9.76001620;2022-08-05T01:52:27;23.50;91.50
7044;DHT22;57890;52.36301240;9.76001620;2022-08-05T01:54:57;23.40;91.50
7044;DHT22;57890;52.36301240;9.76001620;2022-08-05T01:57:27;23.40;91.60
7044;DHT22;57890;52.36301240;9.76001620;2022-08-05T02:00:02;23.40;91.60
7044;DHT22;57890;52.36301240;9.76001620;2022-08-05T02:02:31;23.40;91.70
7044;DHT22;57890;52.36301240;9.76001620;2022-08-05T02:05:02;23.40;91.60
7044;DHT22;57890;52.36301240;9.76001620;2022-08-05T02:07:30;23.30;91.50
7044;DHT22;57890;52.36301240;9.76001620;2022-08-05T02:09:58;23.30;91.60
7044;DHT22;57890;52.36301240;9.76001620;2022-08-05T02:12:30;23.30;91.70
7044;DHT22;57890;52.36301240;9.76001620;2022-08-05T02:15:03;23.30;91.70
7044;DHT22;57890;52.36301240;9.76001620;2022-08-05T02:17:37;23.30;91.70
7044;DHT22;57890;52.36301240;9.76001620;2022-08-05T02:20:10;23.30;91.70
7044;DHT22;57890;52.36301240;9.76001620;2022-08-05T02:22:42;23.30;91.70
7044;DHT22;57890;52.36301240;9.76001620;2022-08-05T02:25:16;23.30;91.70
7044;DHT22;57890;52.36301240;9.76001620;2022-08-05T02:27:43;23.30;91.90
7044;DHT22;57890;52.36301240;9.76001620;2022-08-05T02:30:15;23.20;91.90
7044;DHT22;57890;52.36301240;9.76001620;2022-08-05T02:32:48;23.20;92.00
7044;DHT22;57890;52.36301240;9.76001620;2022-08-05T02:35:19;23.20;92.10
7044;DHT22;57890;52.36301240;9.76001620;2022-08-05T02:37:46;23.20;92.20
7044;DHT22;57890;52.36301240;9.76001620;2022-08-05T02:40:14;23.10;92.30
7044;DHT22;57890;52.36301240;9.76001620;2022-08-05T02:42:42;23.10;92.40
7044;DHT22;57890;52.36301240;9.76001620;2022-08-05T02:45:10;23.00;92.80
7044;DHT22;57890;52.36301240;9.76001620;2022-08-05T02:47:40;23.00;92.60
7044;DHT22;57890;52.36301240;9.76001620;2022-08-05T02:50:09;23.00;92.70
7044;DHT22;57890;52.36301240;9.76001620;2022-08-05T02:52:39;23.00;92.70
7044;DHT22;57890;52.36301240;9.76001620;2022-08-05T02:55:08;23.00;92.70
7044;DHT22;57890;52.36301240;9.76001620;2022-08-05T02:57:37;23.00;92.80
7044;DHT22;57890;52.36301240;9.76001620;2022-08-05T03:00:05;23.00;92.90
7044;DHT22;57890;52.36301240;9.76001620;2022-08-05T03:02:36;22.90;92.90
7044;DHT22;57890;52.36301240;9.76001620;2022-08-05T03:05:08;22.90;92.90
7044;DHT22;57890;52.36301240;9.76001620;2022-08-05T03:07:35;23.00;93.10
7044;DHT22;57890;52.36301240;9.76001620;2022-08-05T03:10:03;23.00;93.00
7044;DHT22;57890;52.36301240;9.76001620;2022-08-05T03:12:30;22.90;92.90
7044;DHT22;57890;52.36301240;9.76001620;2022-08-05T03:14:57;22.90;93.00
7044;DHT22;57890;52.36301240;9.76001620;2022-08-05T03:17:24;22.90;93.10
7044;DHT22;57890;52.36301240;9.76001620;2022-08-05T03:19:51;22.90;93.10
7044;DHT22;57890;52.36301240;9.76001620;2022-08-05T03:22:19;22.90;93.20
7044;DHT22;57890;52.36301240;9.76001620;2022-08-05T03:24:47;22.90;93.20
7044;DHT22;57890;52.36301240;9.76001620;2022-08-05T03:27:15;22.90;93.30
7044;DHT22;57890;52.36301240;9.76001620;2022-08-05T03:29:42;22.90;93.30
7044;DHT22;57890;52.36301240;9.76001620;2022-08-05T03:32:09;22.80;93.20
7044;DHT22;57890;52.36301240;9.76001620;2022-08-05T03:34:37;22.70;93.30
7044;DHT22;57890;52.36301240;9.76001620;2022-08-05T03:37:05;22.70;93.40
7044;DHT22;57890;52.36301240;9.76001620;2022-08-05T03:39:33;22.70;93.50
7044;DHT22;57890;52.36301240;9.76001620;2022-08-05T03:42:00;22.60;93.60
7044;DHT22;57890;52.36301240;9.76001620;2022-08-05T03:44:27;22.60;93.60
7044;DHT22;57890;52.36301240;9.76001620;2022-08-05T03:46:54;22.60;93.70
7044;DHT22;57890;52.36301240;9.76001620;2022-08-05T03:49:21;22.60;93.80
7044;DHT22;57890;52.36301240;9.76001620;2022-08-05T03:51:53;22.60;93.80
7044;DHT22;57890;52.36301240;9.76001620;2022-08-05T03:54:29;22.60;93.90
7044;DHT22;57890;52.36301240;9.76001620;2022-08-05T03:56:59;22.70;94.00
7044;DHT22;57890;52.36301240;9.76001620;2022-08-05T03:59:31;22.70;94.00
7044;DHT22;57890;52.36301240;9.76001620;2022-08-05T04:02:00;22.70;94.00
7044;DHT22;57890;52.36301240;9.76001620;2022-08-05T04:04:28;22.70;94.00
7044;DHT22;57890;52.36301240;9.76001620;2022-08-05T04:06:58;22.80;95.20
7044;DHT22;57890;52.36301240;9.76001620;2022-08-05T04:09:26;22.80;94.70
7044;DHT22;57890;52.36301240;9.76001620;2022-08-05T04:11:54;22.80;94.70
7044;DHT22;57890;52.36301240;9.76001620;2022-08-05T04:14:23;22.80;94.60
7044;DHT22;57890;52.36301240;9.76001620;2022-08-05T04:16:51;22.70;94.60
7044;DHT22;57890;52.36301240;9.76001620;2022-08-05T04:19:18;22.80;94.60
7044;DHT22;57890;52.36301240;9.76001620;2022-08-05T04:21:45;22.80;94.50
7044;DHT22;57890;52.36301240;9.76001620;2022-08-05T04:24:12;22.80;94.40
7044;DHT22;57890;52.36301240;9.76001620;2022-08-05T04:26:39;22.80;94.70
7044;DHT22;57890;52.36301240;9.76001620;2022-08-05T04:29:06;22.90;94.30
7044;DHT22;57890;52.36301240;9.76001620;2022-08-05T04:31:34;22.90;94.20
7044;DHT22;57890;52.36301240;9.76001620;2022-08-05T04:34:01;22.90;94.20
7044;DHT22;57890;52.36301240;9.76001620;2022-08-05T04:36:27;22.90;94.10
7044;DHT22;57890;52.36301240;9.76001620;2022-08-05T04:38:54;23.00;94.10
7044;DHT22;57890;52.36301240;9.76001620;2022-08-05T04:41:22;22.90;94.00
7044;DHT22;57890;52.36301240;9.76001620;2022-08-05T04:43:48;22.90;94.00
7044;DHT22;57890;52.36301240;9.76001620;2022-08-05T04:46:15;22.90;94.10
7044;DHT22;57890;52.36301240;9.76001620;2022-08-05T04:48:43;22.90;94.20
7044;DHT22;57890;52.36301240;9.76001620;2022-08-05T04:51:10;22.90;94.20
7044;DHT22;57890;52.36301240;9.76001620;2022-08-05T04:53:37;22.90;94.20
7044;DHT22;57890;52.36301240;9.76001620;2022-08-05T04:56:05;22.90;94.30
7044;DHT22;57890;52.36301240;9.76001620;2022-08-05T04:58:32;22.80;94.20
7044;DHT22;57890;52.36301240;9.76001620;2022-08-05T05:00:59;22.90;94.30
7044;DHT22;57890;52.36301240;9.76001620;2022-08-05T05:03:25;22.90;95.00
7044;DHT22;57890;52.36301240;9.76001620;2022-08-05T05:05:54;22.90;94.80
7044;DHT22;57890;52.36301240;9.76001620;2022-08-05T05:08:20;22.80;94.50
7044;DHT22;57890;52.36301240;9.76001620;2022-08-05T05:10:48;22.80;94.50
7044;DHT22;57890;52.36301240;9.76001620;2022-08-05T05:13:16;22.70;94.40
7044;DHT22;57890;52.36301240;9.76001620;2022-08-05T05:15:44;22.80;94.40
7044;DHT22;57890;52.36301240;9.76001620;2022-08-05T05:18:12;22.70;94.30
7044;DHT22;57890;52.36301240;9.76001620;2022-08-05T05:20:42;22.70;94.30
7044;DHT22;57890;52.36301240;9.76001620;2022-08-05T05:23:10;22.70;94.40
7044;DHT22;57890;52.36301240;9.76001620;2022-08-05T05:25:39;22.70;94.30
7044;DHT22;57890;52.36301240;9.76001620;2022-08-05T05:28:07;22.80;94.30
7044;DHT22;57890;52.36301240;9.76001620;2022-08-05T05:30:34;22.80;94.20
7044;DHT22;57890;52.36301240;9.76001620;2022-08-05T05:33:02;22.80;94.10
7044;DHT22;57890;52.36301240;9.76001620;2022-08-05T05:35:29;22.80;94.00
7044;DHT22;57890;52.36301240;9.76001620;2022-08-05T05:37:58;22.80;94.00
7044;DHT22;57890;52.36301240;9.76001620;2022-08-05T05:40:28;22.80;94.10
7044;DHT22;57890;52.36301240;9.76001620;2022-08-05T05:42:55;22.80;94.00
7044;DHT22;57890;52.36301240;9.76001620;2022-08-05T05:45:22;22.70;93.90
7044;DHT22;57890;52.36301240;9.76001620;2022-08-05T05:47:49;22.70;93.90
7044;DHT22;57890;52.36301240;9.76001620;2022-08-05T05:50:17;22.70;93.90
7044;DHT22;57890;52.36301240;9.76001620;2022-08-05T05:52:46;22.70;93.90
7044;DHT22;57890;52.36301240;9.76001620;2022-08-05T05:55:15;22.60;93.80
7044;DHT22;57890;52.36301240;9.76001620;2022-08-05T05:57:45;22.60;93.80
7044;DHT22;57890;52.36301240;9.76001620;2022-08-05T06:00:14;22.50;93.60
7044;DHT22;57890;52.36301240;9.76001620;2022-08-05T06:02:42;22.50;93.70
7044;DHT22;57890;52.36301240;9.76001620;2022-08-05T06:05:10;22.40;93.70
7044;DHT22;57890;52.36301240;9.76001620;2022-08-05T06:07:38;22.40;93.80
7044;DHT22;57890;52.36301240;9.76001620;2022-08-05T06:10:06;22.40;93.70
7044;DHT22;57890;52.36301240;9.76001620;2022-08-05T06:12:34;22.40;93.80
7044;DHT22;57890;52.36301240;9.76001620;2022-08-05T06:15:04;22.30;93.70
7044;DHT22;57890;52.36301240;9.76001620;2022-08-05T06:17:31;22.40;93.80
7044;DHT22;57890;52.36301240;9.76001620;2022-08-05T06:19:58;22.30;93.70
7044;DHT22;57890;52.36301240;9.76001620;2022-08-05T06:22:27;22.30;93.70
7044;DHT22;57890;52.36301240;9.76001620;2022-08-05T06:24:54;22.20;93.60
7044;DHT22;57890;52.36301240;9.76001620;2022-08-05T06:27:21;22.20;93.70
7044;DHT22;57890;52.36301240;9.76001620;2022-08-05T06:29:48;22.20;93.80
7044;DHT22;57890;52.36301240;9.76001620;2022-08-05T06:32:16;22.20;93.90
7044;DHT22;57890;52.36301240;9.76001620;2022-08-05T06:34:43;22.20;94.00
7044;DHT22;57890;52.36301240;9.76001620;2022-08-05T06:37:10;22.10;94.10
7044;DHT22;57890;52.36301240;9.76001620;2022-08-05T06:39:37;22.10;94.20
7044;DHT22;57890;52.36301240;9.76001620;2022-08-05T06:42:04;22.10;94.30
7044;DHT22;57890;52.36301240;9.76001620;2022-08-05T06:44:31;22.10;94.40
7044;DHT22;57890;52.36301240;9.76001620;2022-08-05T06:46:58;22.00;94.50
7044;DHT22;57890;52.36301240;9.76001620;2022-08-05T06:49:26;22.00;94.50
7044;DHT22;57890;52.36301240;9.76001620;2022-08-05T06:51:53;21.90;94.60
7044;DHT22;57890;52.36301240;9.76001620;2022-08-05T06:54:20;22.00;94.70
7044;DHT22;57890;52.36301240;9.76001620;2022-08-05T06:56:47;22.00;94.80
7044;DHT22;57890;52.36301240;9.76001620;2022-08-05T06:59:14;22.00;94.80
7044;DHT22;57890;52.36301240;9.76001620;2022-08-05T07:01:40;22.00;94.90
7044;DHT22;57890;52.36301240;9.76001620;2022-08-05T07:04:07;22.00;94.90
7044;DHT22;57890;52.36301240;9.76001620;2022-08-05T07:06:36;22.00;94.90
7044;DHT22;57890;52.36301240;9.76001620;2022-08-05T07:09:03;22.00;94.90
7044;DHT22;57890;52.36301240;9.76001620;2022-08-05T07:11:31;22.00;94.90
7044;DHT22;57890;52.36301240;9.76001620;2022-08-05T07:13:59;22.10;95.80
7044;DHT22;57890;52.36301240;9.76001620;2022-08-05T07:16:43;22.10;95.40
7044;DHT22;57890;52.36301240;9.76001620;2022-08-05T07:19:17;22.10;95.30
7044;DHT22;57890;52.36301240;9.76001620;2022-08-05T07:21:47;22.00;95.20
7044;DHT22;57890;52.36301240;9.76001620;2022-08-05T07:24:14;22.00;95.20
7044;DHT22;57890;52.36301240;9.76001620;2022-08-05T07:26:42;22.00;95.00
7044;DHT22;57890;52.36301240;9.76001620;2022-08-05T07:29:09;22.00;95.10
7044;DHT22;57890;52.36301240;9.76001620;2022-08-05T07:31:36;22.00;95.10
7044;DHT22;57890;52.36301240;9.76001620;2022-08-05T07:34:03;22.00;95.00
7044;DHT22;57890;52.36301240;9.76001620;2022-08-05T07:36:30;22.10;95.10
7044;DHT22;57890;52.36301240;9.76001620;2022-08-05T07:39:00;22.10;95.00
7044;DHT22;57890;52.36301240;9.76001620;2022-08-05T07:41:27;22.10;95.00
7044;DHT22;57890;52.36301240;9.76001620;2022-08-05T07:43:55;22.10;94.90
7044;DHT22;57890;52.36301240;9.76001620;2022-08-05T07:46:23;22.10;94.90
7044;DHT22;57890;52.36301240;9.76001620;2022-08-05T07:48:50;22.20;94.90
7044;DHT22;57890;52.36301240;9.76001620;2022-08-05T07:51:17;22.20;94.90
7044;DHT22;57890;52.36301240;9.76001620;2022-08-05T07:53:43;22.20;94.90
7044;DHT22;57890;52.36301240;9.76001620;2022-08-05T07:56:12;22.20;94.80
7044;DHT22;57890;52.36301240;9.76001620;2022-08-05T07:58:38;22.20;94.80
7044;DHT22;57890;52.36301240;9.76001620;2022-08-05T08:01:05;22.20;94.70
7044;DHT22;57890;52.36301240;9.76001620;2022-08-05T08:03:32;22.20;94.60
7044;DHT22;57890;52.36301240;9.76001620;2022-08-05T08:05:59;22.20;94.70
7044;DHT22;57890;52.36301240;9.76001620;2022-08-05T08:08:25;22.20;94.70
7044;DHT22;57890;52.36301240;9.76001620;2022-08-05T08:10:52;22.20;94.80
7044;DHT22;57890;52.36301240;9.76001620;2022-08-05T08:13:21;22.20;94.80
7044;DHT22;57890;52.36301240;9.76001620;2022-08-05T08:15:48;22.30;94.80
7044;DHT22;57890;52.36301240;9.76001620;2022-08-05T08:18:15;22.30;94.70
7044;DHT22;57890;52.36301240;9.76001620;2022-08-05T08:20:42;22.40;94.70
7044;DHT22;57890;52.36301240;9.76001620;2022-08-05T08:23:09;22.40;94.60
7044;DHT22;57890;52.36301240;9.76001620;2022-08-05T08:25:36;22.40;94.60
7044;DHT22;57890;52.36301240;9.76001620;2022-08-05T08:28:03;22.40;94.60
7044;DHT22;57890;52.36301240;9.76001620;2022-08-05T08:30:31;22.40;94.60
7044;DHT22;57890;52.36301240;9.76001620;2022-08-05T08:32:58;22.40;94.60
7044;DHT22;57890;52.36301240;9.76001620;2022-08-05T08:35:24;22.40;94.60
7044;DHT22;57890;52.36301240;9.76001620;2022-08-05T08:37:51;22.40;94.50
7044;DHT22;57890;52.36301240;9.76001620;2022-08-05T08:40:18;22.40;94.40
7044;DHT22;57890;52.36301240;9.76001620;2022-08-05T08:42:48;22.40;94.40
7044;DHT22;57890;52.36301240;9.76001620;2022-08-05T08:45:15;22.40;94.50
7044;DHT22;57890;52.36301240;9.76001620;2022-08-05T08:47:45;22.40;94.40
7044;DHT22;57890;52.36301240;9.76001620;2022-08-05T08:50:12;22.30;94.40
7044;DHT22;57890;52.36301240;9.76001620;2022-08-05T08:52:41;22.30;94.50
7044;DHT22;57890;52.36301240;9.76001620;2022-08-05T08:55:08;22.30;94.60
7044;DHT22;57890;52.36301240;9.76001620;2022-08-05T08:57:36;22.30;94.60
7044;DHT22;57890;52.36301240;9.76001620;2022-08-05T09:00:04;22.30;94.70
7044;DHT22;57890;52.36301240;9.76001620;2022-08-05T09:02:33;22.40;94.70
7044;DHT22;57890;52.36301240;9.76001620;2022-08-05T09:05:02;22.30;94.60
7044;DHT22;57890;52.36301240;9.76001620;2022-08-05T09:07:29;22.30;94.70
7044;DHT22;57890;52.36301240;9.76001620;2022-08-05T09:09:56;22.30;94.70
7044;DHT22;57890;52.36301240;9.76001620;2022-08-05T09:12:24;22.30;94.70
7044;DHT22;57890;52.36301240;9.76001620;2022-08-05T09:14:51;22.30;94.70
7044;DHT22;57890;52.36301240;9.76001620;2022-08-05T09:17:18;22.40;95.00
7044;DHT22;57890;52.36301240;9.76001620;2022-08-05T09:19:44;22.40;95.00
7044;DHT22;57890;52.36301240;9.76001620;2022-08-05T09:22:12;22.40;95.00
7044;DHT22;57890;52.36301240;9.76001620;2022-08-05T09:24:40;22.40;94.90
7044;DHT22;57890;52.36301240;9.76001620;2022-08-05T09:27:09;22.40;95.00
7044;DHT22;57890;52.36301240;9.76001620;2022-08-05T09:29:38;22.40;95.00
7044;DHT22;57890;52.36301240;9.76001620;2022-08-05T09:32:07;22.40;95.10
7044;DHT22;57890;52.36301240;9.76001620;2022-08-05T09:34:46;22.40;95.10
7044;DHT22;57890;52.36301240;9.76001620;2022-08-05T09:37:18;22.40;95.10
7044;DHT22;57890;52.36301240;9.76001620;2022-08-05T09:39:46;22.40;95.10
7044;DHT22;57890;52.36301240;9.76001620;2022-08-05T09:42:14;22.30;95.10
7044;DHT22;57890;52.36301240;9.76001620;2022-08-05T09:44:45;22.30;95.10
7044;DHT22;57890;52.36301240;9.76001620;2022-08-05T09:47:14;22.30;95.10
7044;DHT22;57890;52.36301240;9.76001620;2022-08-05T09:49:44;22.30;95.00
7044;DHT22;57890;52.36301240;9.76001620;2022-08-05T09:52:21;22.30;94.90
7044;DHT22;57890;52.36301240;9.76001620;2022-08-05T09:54:57;22.30;94.90
7044;DHT22;57890;52.36301240;9.76001620;2022-08-05T09:57:31;22.20;94.80
7044;DHT22;57890;52.36301240;9.76001620;2022-08-05T09:59:59;22.20;94.70
7044;DHT22;57890;52.36301240;9.76001620;2022-08-05T10:02:31;22.30;94.60
7044;DHT22;57890;52.36301240;9.76001620;2022-08-05T10:05:03;22.30;94.50
7044;DHT22;57890;52.36301240;9.76001620;2022-08-05T10:07:49;22.30;94.30
7044;DHT22;57890;52.36301240;9.76001620;2022-08-05T10:10:18;22.30;94.20
7044;DHT22;57890;52.36301240;9.76001620;2022-08-05T10:12:47;22.30;94.00
7044;DHT22;57890;52.36301240;9.76001620;2022-08-05T10:15:16;22.30;93.90
7044;DHT22;57890;52.36301240;9.76001620;2022-08-05T10:17:44;22.30;94.00
7044;DHT22;57890;52.36301240;9.76001620;2022-08-05T10:20:27;22.30;94.00
7044;DHT22;57890;52.36301240;9.76001620;2022-08-05T10:22:55;22.30;93.80
7044;DHT22;57890;52.36301240;9.76001620;2022-08-05T10:25:23;22.20;93.70
7044;DHT22;57890;52.36301240;9.76001620;2022-08-05T10:27:50;22.20;93.60
7044;DHT22;57890;52.36301240;9.76001620;2022-08-05T10:30:18;22.20;93.50
7044;DHT22;57890;52.36301240;9.76001620;2022-08-05T10:32:45;22.20;93.30
7044;DHT22;57890;52.36301240;9.76001620;2022-08-05T10:35:12;22.20;93.20
7044;DHT22;57890;52.36301240;9.76001620;2022-08-05T10:37:40;22.20;93.40
7044;DHT22;57890;52.36301240;9.76001620;2022-08-05T10:40:15;22.10;93.40
7044;DHT22;57890;52.36301240;9.76001620;2022-08-05T10:42:46;22.10;93.20
7044;DHT22;57890;52.36301240;9.76001620;2022-08-05T10:45:20;22.10;93.10
7044;DHT22;57890;52.36301240;9.76001620;2022-08-05T10:47:49;22.10;93.00
7044;DHT22;57890;52.36301240;9.76001620;2022-08-05T10:50:15;22.10;93.10
7044;DHT22;57890;52.36301240;9.76001620;2022-08-05T10:52:44;22.00;93.10
7044;DHT22;57890;52.36301240;9.76001620;2022-08-05T10:55:18;22.00;93.20
7044;DHT22;57890;52.36301240;9.76001620;2022-08-05T10:57:45;22.00;93.20
7044;DHT22;57890;52.36301240;9.76001620;2022-08-05T11:00:14;21.90;93.20
7044;DHT22;57890;52.36301240;9.76001620;2022-08-05T11:03:10;21.90;93.40
7044;DHT22;57890;52.36301240;9.76001620;2022-08-05T11:05:37;21.80;93.40
7044;DHT22;57890;52.36301240;9.76001620;2022-08-05T11:08:07;21.80;93.60
7044;DHT22;57890;52.36301240;9.76001620;2022-08-05T11:10:36;21.80;93.60
7044;DHT22;57890;52.36301240;9.76001620;2022-08-05T11:13:05;21.80;93.70
7044;DHT22;57890;52.36301240;9.76001620;2022-08-05T11:15:34;21.80;93.70
7044;DHT22;57890;52.36301240;9.76001620;2022-08-05T11:18:21;21.80;93.90
7044;DHT22;57890;52.36301240;9.76001620;2022-08-05T11:20:49;21.80;94.00
7044;DHT22;57890;52.36301240;9.76001620;2022-08-05T11:23:31;21.70;93.90
7044;DHT22;57890;52.36301240;9.76001620;2022-08-05T11:26:04;21.80;94.00
7044;DHT22;57890;52.36301240;9.76001620;2022-08-05T11:28:46;21.80;93.90
7044;DHT22;57890;52.36301240;9.76001620;2022-08-05T11:31:24;21.80;94.00
7044;DHT22;57890;52.36301240;9.76001620;2022-08-05T11:34:01;21.90;94.00
7044;DHT22;57890;52.36301240;9.76001620;2022-08-05T11:36:48;21.90;93.90
7044;DHT22;57890;52.36301240;9.76001620;2022-08-05T11:42:04;22.00;93.80
7044;DHT22;57890;52.36301240;9.76001620;2022-08-05T11:44:35;22.10;93.90
7044;DHT22;57890;52.36301240;9.76001620;2022-08-05T11:47:04;22.10;93.90
7044;DHT22;57890;52.36301240;9.76001620;2022-08-05T11:49:31;22.20;93.90
7044;DHT22;57890;52.36301240;9.76001620;2022-08-05T11:51:58;22.20;93.90
7044;DHT22;57890;52.36301240;9.76001620;2022-08-05T11:54:27;22.20;93.90
7044;DHT22;57890;52.36301240;9.76001620;2022-08-05T11:56:55;22.20;93.80
7044;DHT22;57890;52.36301240;9.76001620;2022-08-05T11:59:25;22.20;93.90
7044;DHT22;57890;52.36301240;9.76001620;2022-08-05T12:01:57;22.20;93.80
7044;DHT22;57890;52.36301240;9.76001620;2022-08-05T12:04:25;22.20;93.80
7044;DHT22;57890;52.36301240;9.76001620;2022-08-05T12:06:53;22.20;93.70
7044;DHT22;57890;52.36301240;9.76001620;2022-08-05T12:09:24;22.10;93.80
7044;DHT22;57890;52.36301240;9.76001620;2022-08-05T12:11:52;22.10;93.80
7044;DHT22;57890;52.36301240;9.76001620;2022-08-05T12:14:19;22.10;93.80
7044;DHT22;57890;52.36301240;9.76001620;2022-08-05T12:16:48;22.10;93.70
7044;DHT22;57890;52.36301240;9.76001620;2022-08-05T12:19:16;22.10;93.70
7044;DHT22;57890;52.36301240;9.76001620;2022-08-05T12:21:46;22.00;93.70
7044;DHT22;57890;52.36301240;9.76001620;2022-08-05T12:24:14;22.10;93.70
7044;DHT22;57890;52.36301240;9.76001620;2022-08-05T12:26:44;22.10;93.70
7044;DHT22;57890;52.36301240;9.76001620;2022-08-05T12:29:12;22.10;93.60
7044;DHT22;57890;52.36301240;9.76001620;2022-08-05T12:31:44;22.10;93.60
7044;DHT22;57890;52.36301240;9.76001620;2022-08-05T12:34:13;22.10;93.50
7044;DHT22;57890;52.36301240;9.76001620;2022-08-05T12:36:41;22.10;93.50
7044;DHT22;57890;52.36301240;9.76001620;2022-08-05T12:39:08;22.10;93.40
7044;DHT22;57890;52.36301240;9.76001620;2022-08-05T12:41:36;22.00;93.30
7044;DHT22;57890;52.36301240;9.76001620;2022-08-05T12:44:05;22.10;93.30
7044;DHT22;57890;52.36301240;9.76001620;2022-08-05T12:46:34;22.00;93.20
7044;DHT22;57890;52.36301240;9.76001620;2022-08-05T12:49:04;22.10;93.30
7044;DHT22;57890;52.36301240;9.76001620;2022-08-05T12:51:43;22.00;93.20
7044;DHT22;57890;52.36301240;9.76001620;2022-08-05T12:54:10;22.00;93.20
7044;DHT22;57890;52.36301240;9.76001620;2022-08-05T12:56:40;22.00;93.20
7044;DHT22;57890;52.36301240;9.76001620;2022-08-05T12:59:12;22.00;93.20
7044;DHT22;57890;52.36301240;9.76001620;2022-08-05T13:01:39;22.00;93.20
7044;DHT22;57890;52.36301240;9.76001620;2022-08-05T13:04:07;22.10;93.30
7044;DHT22;57890;52.36301240;9.76001620;2022-08-05T13:06:41;22.10;93.30
7044;DHT22;57890;52.36301240;9.76001620;2022-08-05T13:09:09;22.10;93.40
7044;DHT22;57890;52.36301240;9.76001620;2022-08-05T13:11:38;22.30;93.30
7044;DHT22;57890;52.36301240;9.76001620;2022-08-05T13:14:11;22.40;93.30
7044;DHT22;57890;52.36301240;9.76001620;2022-08-05T13:16:47;22.50;93.20
7044;DHT22;57890;52.36301240;9.76001620;2022-08-05T13:19:14;22.60;93.00
7044;DHT22;57890;52.36301240;9.76001620;2022-08-05T13:21:44;22.60;92.90
7044;DHT22;57890;52.36301240;9.76001620;2022-08-05T13:24:11;22.70;92.80
7044;DHT22;57890;52.36301240;9.76001620;2022-08-05T13:26:38;22.70;92.70
7044;DHT22;57890;52.36301240;9.76001620;2022-08-05T13:29:05;22.70;92.60
7044;DHT22;57890;52.36301240;9.76001620;2022-08-05T13:31:32;22.70;92.60
7044;DHT22;57890;52.36301240;9.76001620;2022-08-05T13:33:59;22.70;92.60
7044;DHT22;57890;52.36301240;9.76001620;2022-08-05T13:36:26;22.70;92.40
7044;DHT22;57890;52.36301240;9.76001620;2022-08-05T13:38:54;22.70;92.30
7044;DHT22;57890;52.36301240;9.76001620;2022-08-05T13:41:21;22.60;92.10
7044;DHT22;57890;52.36301240;9.76001620;2022-08-05T13:43:47;22.60;92.00
7044;DHT22;57890;52.36301240;9.76001620;2022-08-05T13:46:15;22.60;91.90
7044;DHT22;57890;52.36301240;9.76001620;2022-08-05T13:48:42;22.60;91.70